sensor_id;sensor_type;location;lat;lon;timestamp;temperature;humidity
11532;DHT22;5822;51.000;5.874;2023-02-18T00:01:55;12.80;99.90
11532;DHT22;5822;51.000;5.874;2023-02-18T00:04:21;12.90;99.90
11532;DHT22;5822;51.000;5.874;2023-02-18T00:06:46;12.70;99.90
11532;DHT22;5822;51.000;5.874;2023-02-18T00:09:12;12.80;99.90
11532;DHT22;5822;51.000;5.874;2023-02-18T00:11:38;12.70;99.90
11532;DHT22;5822;51.000;5.874;2023-02-18T00:14:06;12.70;99.90
11532;DHT22;5822;51.000;5.874;2023-02-18T00:16:32;12.70;99.90
11532;DHT22;5822;51.000;5.874;2023-02-18T00:19:01;12.80;99.90
11532;DHT22;5822;51.000;5.874;2023-02-18T00:21:27;12.80;99.90
11532;DHT22;5822;51.000;5.874;2023-02-18T00:23:53;12.80;99.90
11532;DHT22;5822;51.000;5.874;2023-02-18T00:26:19;12.70;99.90
11532;DHT22;5822;51.000;5.874;2023-02-18T00:28:46;12.70;99.90
11532;DHT22;5822;51.000;5.874;2023-02-18T00:31:24;12.80;99.90
11532;DHT22;5822;51.000;5.874;2023-02-18T00:33:50;12.70;99.90
11532;DHT22;5822;51.000;5.874;2023-02-18T00:36:17;12.80;99.90
11532;DHT22;5822;51.000;5.874;2023-02-18T00:38:51;12.80;99.90
11532;DHT22;5822;51.000;5.874;2023-02-18T00:41:18;12.90;99.90
11532;DHT22;5822;51.000;5.874;2023-02-18T00:43:44;12.80;99.90
11532;DHT22;5822;51.000;5.874;2023-02-18T00:46:10;12.80;99.90
11532;DHT22;5822;51.000;5.874;2023-02-18T00:48:36;12.70;99.90
11532;DHT22;5822;51.000;5.874;2023-02-18T00:51:03;12.70;99.90
11532;DHT22;5822;51.000;5.874;2023-02-18T00:53:29;12.60;99.90
11532;DHT22;5822;51.000;5.874;2023-02-18T00:55:55;12.60;99.90
11532;DHT22;5822;51.000;5.874;2023-02-18T00:58:21;12.70;99.90
11532;DHT22;5822;51.000;5.874;2023-02-18T01:00:46;12.60;99.90
11532;DHT22;5822;51.000;5.874;2023-02-18T01:03:13;12.60;99.90
11532;DHT22;5822;51.000;5.874;2023-02-18T01:05:42;12.60;99.90
11532;DHT22;5822;51.000;5.874;2023-02-18T01:08:09;12.60;99.90
11532;DHT22;5822;51.000;5.874;2023-02-18T01:10:39;12.60;99.90
11532;DHT22;5822;51.000;5.874;2023-02-18T01:13:05;12.60;99.90
11532;DHT22;5822;51.000;5.874;2023-02-18T01:15:31;12.60;99.90
11532;DHT22;5822;51.000;5.874;2023-02-18T01:17:56;12.60;99.90
11532;DHT22;5822;51.000;5.874;2023-02-18T01:20:22;12.50;99.90
11532;DHT22;5822;51.000;5.874;2023-02-18T01:22:48;12.60;99.90
11532;DHT22;5822;51.000;5.874;2023-02-18T01:25:14;12.50;99.90
11532;DHT22;5822;51.000;5.874;2023-02-18T01:27:42;12.50;99.90
11532;DHT22;5822;51.000;5.874;2023-02-18T01:30:11;12.50;99.90
11532;DHT22;5822;51.000;5.874;2023-02-18T01:32:37;12.50;99.90
11532;DHT22;5822;51.000;5.874;2023-02-18T01:35:04;12.50;99.90
11532;DHT22;5822;51.000;5.874;2023-02-18T01:37:30;12.50;99.90
11532;DHT22;5822;51.000;5.874;2023-02-18T01:39:55;12.50;99.90
11532;DHT22;5822;51.000;5.874;2023-02-18T01:42:24;12.60;99.90
11532;DHT22;5822;51.000;5.874;2023-02-18T01:44:50;12.60;99.90
11532;DHT22;5822;51.000;5.874;2023-02-18T01:47:16;12.50;99.90
11532;DHT22;5822;51.000;5.874;2023-02-18T01:49:44;12.50;99.90
11532;DHT22;5822;51.000;5.874;2023-02-18T01:52:23;12.50;99.90
11532;DHT22;5822;51.000;5.874;2023-02-18T01:54:53;12.50;99.90
11532;DHT22;5822;51.000;5.874;2023-02-18T01:57:22;12.50;99.90
11532;DHT22;5822;51.000;5.874;2023-02-18T01:59:53;12.50;99.90
11532;DHT22;5822;51.000;5.874;2023-02-18T02:02:24;12.50;99.90
11532;DHT22;5822;51.000;5.874;2023-02-18T02:04:50;12.50;99.90
11532;DHT22;5822;51.000;5.874;2023-02-18T02:07:18;12.50;99.90
11532;DHT22;5822;51.000;5.874;2023-02-18T02:09:45;12.50;99.90
11532;DHT22;5822;51.000;5.874;2023-02-18T02:29:10;12.50;99.90
11532;DHT22;5822;51.000;5.874;2023-02-18T02:37:54;12.50;99.90
11532;DHT22;5822;51.000;5.874;2023-02-18T02:43:17;12.50;99.90
11532;DHT22;5822;51.000;5.874;2023-02-18T02:51:10;12.40;99.90
11532;DHT22;5822;51.000;5.874;2023-02-18T02:53:40;12.40;99.90
11532;DHT22;5822;51.000;5.874;2023-02-18T02:56:13;12.30;99.90
11532;DHT22;5822;51.000;5.874;2023-02-18T02:58:39;12.30;99.90
11532;DHT22;5822;51.000;5.874;2023-02-18T03:09:46;12.30;99.90
11532;DHT22;5822;51.000;5.874;2023-02-18T03:15:23;12.30;99.90
11532;DHT22;5822;51.000;5.874;2023-02-18T03:17:57;12.20;99.90
11532;DHT22;5822;51.000;5.874;2023-02-18T03:22:53;12.30;99.90
11532;DHT22;5822;51.000;5.874;2023-02-18T03:25:20;12.20;99.90
11532;DHT22;5822;51.000;5.874;2023-02-18T03:27:58;12.20;99.90
11532;DHT22;5822;51.000;5.874;2023-02-18T03:33:10;12.20;99.90
11532;DHT22;5822;51.000;5.874;2023-02-18T03:35:39;12.20;99.90
11532;DHT22;5822;51.000;5.874;2023-02-18T03:38:20;12.10;99.90
11532;DHT22;5822;51.000;5.874;2023-02-18T03:40:49;12.20;99.90
11532;DHT22;5822;51.000;5.874;2023-02-18T03:43:15;12.20;99.90
11532;DHT22;5822;51.000;5.874;2023-02-18T03:45:40;12.20;99.90
11532;DHT22;5822;51.000;5.874;2023-02-18T03:48:06;12.10;99.90
11532;DHT22;5822;51.000;5.874;2023-02-18T03:50:32;12.10;99.90
11532;DHT22;5822;51.000;5.874;2023-02-18T03:52:58;12.10;99.90
11532;DHT22;5822;51.000;5.874;2023-02-18T03:55:23;12.20;99.90
11532;DHT22;5822;51.000;5.874;2023-02-18T03:57:49;12.20;99.90
11532;DHT22;5822;51.000;5.874;2023-02-18T04:00:16;12.20;99.90
11532;DHT22;5822;51.000;5.874;2023-02-18T04:02:41;12.20;99.90
11532;DHT22;5822;51.000;5.874;2023-02-18T04:05:07;12.20;99.90
11532;DHT22;5822;51.000;5.874;2023-02-18T04:07:33;12.20;99.90
11532;DHT22;5822;51.000;5.874;2023-02-18T04:09:59;12.20;99.90
11532;DHT22;5822;51.000;5.874;2023-02-18T04:12:25;12.20;99.90
11532;DHT22;5822;51.000;5.874;2023-02-18T04:14:51;12.20;99.90
11532;DHT22;5822;51.000;5.874;2023-02-18T04:17:17;12.20;99.90
11532;DHT22;5822;51.000;5.874;2023-02-18T04:19:43;12.20;99.90
11532;DHT22;5822;51.000;5.874;2023-02-18T04:22:08;12.10;99.90
11532;DHT22;5822;51.000;5.874;2023-02-18T04:24:34;12.10;99.90
11532;DHT22;5822;51.000;5.874;2023-02-18T04:27:00;12.00;99.90
11532;DHT22;5822;51.000;5.874;2023-02-18T04:29:25;12.10;99.90
11532;DHT22;5822;51.000;5.874;2023-02-18T04:31:51;12.00;99.90
11532;DHT22;5822;51.000;5.874;2023-02-18T04:34:16;12.00;99.90
11532;DHT22;5822;51.000;5.874;2023-02-18T04:36:42;12.00;99.90
11532;DHT22;5822;51.000;5.874;2023-02-18T04:39:08;12.00;99.90
11532;DHT22;5822;51.000;5.874;2023-02-18T04:41:33;12.00;99.90
11532;DHT22;5822;51.000;5.874;2023-02-18T04:43:59;12.00;99.90
11532;DHT22;5822;51.000;5.874;2023-02-18T04:46:25;12.00;99.90
11532;DHT22;5822;51.000;5.874;2023-02-18T04:48:50;12.00;99.90
11532;DHT22;5822;51.000;5.874;2023-02-18T04:51:16;12.00;99.90
11532;DHT22;5822;51.000;5.874;2023-02-18T04:53:41;12.00;99.90
11532;DHT22;5822;51.000;5.874;2023-02-18T04:56:07;12.00;99.90
11532;DHT22;5822;51.000;5.874;2023-02-18T04:58:33;12.00;99.90
11532;DHT22;5822;51.000;5.874;2023-02-18T05:01:00;12.00;99.90
11532;DHT22;5822;51.000;5.874;2023-02-18T05:03:26;12.00;99.90
11532;DHT22;5822;51.000;5.874;2023-02-18T05:05:52;12.00;99.90
11532;DHT22;5822;51.000;5.874;2023-02-18T05:08:18;12.00;99.90
11532;DHT22;5822;51.000;5.874;2023-02-18T05:10:43;12.00;99.90
11532;DHT22;5822;51.000;5.874;2023-02-18T05:13:09;12.00;99.90
11532;DHT22;5822;51.000;5.874;2023-02-18T05:15:35;12.00;99.90
11532;DHT22;5822;51.000;5.874;2023-02-18T05:18:01;12.10;99.90
11532;DHT22;5822;51.000;5.874;2023-02-18T05:20:26;12.10;99.90
11532;DHT22;5822;51.000;5.874;2023-02-18T05:22:52;12.10;99.90
11532;DHT22;5822;51.000;5.874;2023-02-18T05:25:18;12.10;99.90
11532;DHT22;5822;51.000;5.874;2023-02-18T05:27:43;12.00;99.90
11532;DHT22;5822;51.000;5.874;2023-02-18T05:30:09;12.10;99.90
11532;DHT22;5822;51.000;5.874;2023-02-18T05:32:35;12.10;99.90
11532;DHT22;5822;51.000;5.874;2023-02-18T05:35:01;12.10;99.90
11532;DHT22;5822;51.000;5.874;2023-02-18T05:37:26;12.00;99.90
11532;DHT22;5822;51.000;5.874;2023-02-18T05:39:52;12.00;99.90
11532;DHT22;5822;51.000;5.874;2023-02-18T05:42:17;12.00;99.90
11532;DHT22;5822;51.000;5.874;2023-02-18T05:44:43;12.00;99.90
11532;DHT22;5822;51.000;5.874;2023-02-18T05:47:12;11.90;99.90
11532;DHT22;5822;51.000;5.874;2023-02-18T05:49:39;12.00;99.90
11532;DHT22;5822;51.000;5.874;2023-02-18T05:52:05;12.10;99.90
11532;DHT22;5822;51.000;5.874;2023-02-18T05:54:31;12.00;99.90
11532;DHT22;5822;51.000;5.874;2023-02-18T05:56:57;12.10;99.90
11532;DHT22;5822;51.000;5.874;2023-02-18T05:59:23;12.10;99.90
11532;DHT22;5822;51.000;5.874;2023-02-18T06:01:49;12.10;99.90
11532;DHT22;5822;51.000;5.874;2023-02-18T06:04:15;12.20;99.90
11532;DHT22;5822;51.000;5.874;2023-02-18T06:06:41;12.10;99.90
11532;DHT22;5822;51.000;5.874;2023-02-18T06:09:07;12.20;99.90
11532;DHT22;5822;51.000;5.874;2023-02-18T06:11:33;12.10;99.90
11532;DHT22;5822;51.000;5.874;2023-02-18T06:13:59;12.10;99.90
11532;DHT22;5822;51.000;5.874;2023-02-18T06:16:25;12.20;99.90
11532;DHT22;5822;51.000;5.874;2023-02-18T06:18:51;12.20;99.90
11532;DHT22;5822;51.000;5.874;2023-02-18T06:21:17;12.20;99.90
11532;DHT22;5822;51.000;5.874;2023-02-18T06:23:42;12.20;99.90
11532;DHT22;5822;51.000;5.874;2023-02-18T06:26:08;12.30;99.90
11532;DHT22;5822;51.000;5.874;2023-02-18T06:28:33;12.20;99.90
11532;DHT22;5822;51.000;5.874;2023-02-18T06:30:59;12.10;99.90
11532;DHT22;5822;51.000;5.874;2023-02-18T06:33:25;12.20;99.90
11532;DHT22;5822;51.000;5.874;2023-02-18T06:36:02;12.20;99.90
11532;DHT22;5822;51.000;5.874;2023-02-18T06:38:31;12.20;99.90
11532;DHT22;5822;51.000;5.874;2023-02-18T06:40:56;12.20;99.90
11532;DHT22;5822;51.000;5.874;2023-02-18T06:43:22;12.10;99.90
11532;DHT22;5822;51.000;5.874;2023-02-18T06:45:48;12.10;99.90
11532;DHT22;5822;51.000;5.874;2023-02-18T06:48:13;12.10;99.90
11532;DHT22;5822;51.000;5.874;2023-02-18T06:50:40;12.10;99.90
11532;DHT22;5822;51.000;5.874;2023-02-18T06:53:06;12.00;99.90
11532;DHT22;5822;51.000;5.874;2023-02-18T06:55:31;12.00;99.90
11532;DHT22;5822;51.000;5.874;2023-02-18T06:57:57;12.00;99.90
11532;DHT22;5822;51.000;5.874;2023-02-18T07:00:23;11.90;99.90
11532;DHT22;5822;51.000;5.874;2023-02-18T07:02:49;11.90;99.90
11532;DHT22;5822;51.000;5.874;2023-02-18T07:05:15;11.90;99.90
11532;DHT22;5822;51.000;5.874;2023-02-18T07:07:40;11.90;99.90
11532;DHT22;5822;51.000;5.874;2023-02-18T07:10:07;11.90;99.90
11532;DHT22;5822;51.000;5.874;2023-02-18T07:12:33;11.80;99.90
11532;DHT22;5822;51.000;5.874;2023-02-18T07:14:58;11.90;99.90
11532;DHT22;5822;51.000;5.874;2023-02-18T07:17:24;11.80;99.90
11532;DHT22;5822;51.000;5.874;2023-02-18T07:19:50;11.80;99.90
11532;DHT22;5822;51.000;5.874;2023-02-18T07:22:15;11.70;99.90
11532;DHT22;5822;51.000;5.874;2023-02-18T07:24:42;11.70;99.90
11532;DHT22;5822;51.000;5.874;2023-02-18T07:27:07;11.60;99.90
11532;DHT22;5822;51.000;5.874;2023-02-18T07:29:33;11.60;99.90
11532;DHT22;5822;51.000;5.874;2023-02-18T07:31:58;11.60;99.90
11532;DHT22;5822;51.000;5.874;2023-02-18T07:34:24;11.50;99.90
11532;DHT22;5822;51.000;5.874;2023-02-18T07:36:50;11.50;99.90
11532;DHT22;5822;51.000;5.874;2023-02-18T07:39:15;11.50;99.90
11532;DHT22;5822;51.000;5.874;2023-02-18T07:41:45;11.50;99.90
11532;DHT22;5822;51.000;5.874;2023-02-18T07:44:11;11.40;99.90
11532;DHT22;5822;51.000;5.874;2023-02-18T07:46:40;11.40;99.90
11532;DHT22;5822;51.000;5.874;2023-02-18T07:49:07;11.40;99.90
11532;DHT22;5822;51.000;5.874;2023-02-18T07:51:32;11.50;99.90
11532;DHT22;5822;51.000;5.874;2023-02-18T07:53:58;11.40;99.90
11532;DHT22;5822;51.000;5.874;2023-02-18T07:56:23;11.50;99.90
11532;DHT22;5822;51.000;5.874;2023-02-18T07:58:51;11.50;99.90
11532;DHT22;5822;51.000;5.874;2023-02-18T08:01:17;11.50;99.90
11532;DHT22;5822;51.000;5.874;2023-02-18T08:03:43;11.50;99.90
11532;DHT22;5822;51.000;5.874;2023-02-18T08:06:20;11.40;99.90
11532;DHT22;5822;51.000;5.874;2023-02-18T08:08:46;11.30;99.90
11532;DHT22;5822;51.000;5.874;2023-02-18T08:11:11;11.30;99.90
11532;DHT22;5822;51.000;5.874;2023-02-18T08:13:37;11.30;99.90
11532;DHT22;5822;51.000;5.874;2023-02-18T08:16:02;11.40;99.90
11532;DHT22;5822;51.000;5.874;2023-02-18T08:18:28;11.40;99.90
11532;DHT22;5822;51.000;5.874;2023-02-18T08:20:54;11.40;99.90
11532;DHT22;5822;51.000;5.874;2023-02-18T08:23:21;11.40;99.90
11532;DHT22;5822;51.000;5.874;2023-02-18T08:25:52;11.40;99.90
11532;DHT22;5822;51.000;5.874;2023-02-18T08:28:22;11.40;99.90
11532;DHT22;5822;51.000;5.874;2023-02-18T08:30:50;11.40;99.90
11532;DHT22;5822;51.000;5.874;2023-02-18T08:33:16;11.50;99.90
11532;DHT22;5822;51.000;5.874;2023-02-18T08:35:43;11.40;99.90
11532;DHT22;5822;51.000;5.874;2023-02-18T08:38:09;11.40;99.90
11532;DHT22;5822;51.000;5.874;2023-02-18T08:40:34;11.40;99.90
11532;DHT22;5822;51.000;5.874;2023-02-18T08:43:00;11.50;99.90
11532;DHT22;5822;51.000;5.874;2023-02-18T08:45:26;11.50;99.90
11532;DHT22;5822;51.000;5.874;2023-02-18T08:47:51;11.50;99.90
11532;DHT22;5822;51.000;5.874;2023-02-18T08:50:17;11.60;99.90
11532;DHT22;5822;51.000;5.874;2023-02-18T08:52:45;11.60;99.90
11532;DHT22;5822;51.000;5.874;2023-02-18T08:55:11;11.70;99.90
11532;DHT22;5822;51.000;5.874;2023-02-18T08:57:36;11.70;99.90
11532;DHT22;5822;51.000;5.874;2023-02-18T09:00:03;11.70;99.90
11532;DHT22;5822;51.000;5.874;2023-02-18T09:02:30;11.80;99.90
11532;DHT22;5822;51.000;5.874;2023-02-18T09:04:56;11.80;99.90
11532;DHT22;5822;51.000;5.874;2023-02-18T09:07:21;11.80;99.90
11532;DHT22;5822;51.000;5.874;2023-02-18T09:09:47;11.80;99.90
11532;DHT22;5822;51.000;5.874;2023-02-18T09:12:12;11.90;99.90
11532;DHT22;5822;51.000;5.874;2023-02-18T09:14:38;12.00;99.90
11532;DHT22;5822;51.000;5.874;2023-02-18T09:17:04;12.00;99.90
11532;DHT22;5822;51.000;5.874;2023-02-18T09:19:30;12.00;99.90
11532;DHT22;5822;51.000;5.874;2023-02-18T09:21:55;12.00;99.90
11532;DHT22;5822;51.000;5.874;2023-02-18T09:24:22;12.10;99.90
11532;DHT22;5822;51.000;5.874;2023-02-18T09:26:49;12.10;99.90
11532;DHT22;5822;51.000;5.874;2023-02-18T09:29:15;12.20;99.90
11532;DHT22;5822;51.000;5.874;2023-02-18T09:31:42;12.20;99.90
11532;DHT22;5822;51.000;5.874;2023-02-18T09:34:08;12.20;99.90
11532;DHT22;5822;51.000;5.874;2023-02-18T09:36:33;12.20;99.90
11532;DHT22;5822;51.000;5.874;2023-02-18T09:38:59;12.20;99.90
11532;DHT22;5822;51.000;5.874;2023-02-18T09:44:04;12.20;99.90
11532;DHT22;5822;51.000;5.874;2023-02-18T09:46:34;12.20;99.90
11532;DHT22;5822;51.000;5.874;2023-02-18T09:49:07;12.20;99.90
11532;DHT22;5822;51.000;5.874;2023-02-18T09:51:37;12.30;99.90
11532;DHT22;5822;51.000;5.874;2023-02-18T09:54:03;12.20;99.90
11532;DHT22;5822;51.000;5.874;2023-02-18T09:56:32;12.30;99.90
11532;DHT22;5822;51.000;5.874;2023-02-18T09:59:04;12.30;99.90
11532;DHT22;5822;51.000;5.874;2023-02-18T10:01:33;12.30;99.90
11532;DHT22;5822;51.000;5.874;2023-02-18T10:04:24;12.30;99.90
11532;DHT22;5822;51.000;5.874;2023-02-18T10:06:52;12.20;99.90
11532;DHT22;5822;51.000;5.874;2023-02-18T10:09:20;12.20;99.90
11532;DHT22;5822;51.000;5.874;2023-02-18T10:12:02;12.30;99.90
11532;DHT22;5822;51.000;5.874;2023-02-18T10:14:29;12.30;99.90
11532;DHT22;5822;51.000;5.874;2023-02-18T10:16:57;12.20;99.90
11532;DHT22;5822;51.000;5.874;2023-02-18T10:19:28;12.10;99.90
11532;DHT22;5822;51.000;5.874;2023-02-18T10:21:56;12.00;99.90
11532;DHT22;5822;51.000;5.874;2023-02-18T10:24:37;11.90;99.90
11532;DHT22;5822;51.000;5.874;2023-02-18T10:27:05;12.00;99.90
11532;DHT22;5822;51.000;5.874;2023-02-18T10:29:32;11.90;99.90
11532;DHT22;5822;51.000;5.874;2023-02-18T10:34:45;12.10;99.90
11532;DHT22;5822;51.000;5.874;2023-02-18T10:45:37;12.00;99.90
11532;DHT22;5822;51.000;5.874;2023-02-18T10:50:45;11.90;99.90
11532;DHT22;5822;51.000;5.874;2023-02-18T10:55:44;11.80;99.90
11532;DHT22;5822;51.000;5.874;2023-02-18T11:00:54;11.80;99.90
11532;DHT22;5822;51.000;5.874;2023-02-18T11:03:25;11.90;99.90
11532;DHT22;5822;51.000;5.874;2023-02-18T11:05:55;11.80;99.90
11532;DHT22;5822;51.000;5.874;2023-02-18T11:08:28;11.80;99.90
11532;DHT22;5822;51.000;5.874;2023-02-18T11:11:08;11.80;99.90
11532;DHT22;5822;51.000;5.874;2023-02-18T11:13:39;11.80;99.90
11532;DHT22;5822;51.000;5.874;2023-02-18T11:16:05;11.80;99.90
11532;DHT22;5822;51.000;5.874;2023-02-18T11:18:40;11.80;99.90
11532;DHT22;5822;51.000;5.874;2023-02-18T11:23:47;11.80;99.90
11532;DHT22;5822;51.000;5.874;2023-02-18T11:26:15;11.80;99.90
11532;DHT22;5822;51.000;5.874;2023-02-18T11:28:42;11.80;99.90
11532;DHT22;5822;51.000;5.874;2023-02-18T11:31:15;11.70;99.90
11532;DHT22;5822;51.000;5.874;2023-02-18T11:33:56;11.60;99.90
11532;DHT22;5822;51.000;5.874;2023-02-18T11:36:29;11.60;99.90
11532;DHT22;5822;51.000;5.874;2023-02-18T11:38:58;11.70;99.90
11532;DHT22;5822;51.000;5.874;2023-02-18T11:41:33;11.60;99.90
11532;DHT22;5822;51.000;5.874;2023-02-18T11:43:59;11.70;99.90
11532;DHT22;5822;51.000;5.874;2023-02-18T11:46:26;11.70;99.90
11532;DHT22;5822;51.000;5.874;2023-02-18T11:48:52;11.70;99.90
11532;DHT22;5822;51.000;5.874;2023-02-18T11:51:25;11.70;99.90
11532;DHT22;5822;51.000;5.874;2023-02-18T11:54:00;11.70;99.90
11532;DHT22;5822;51.000;5.874;2023-02-18T11:56:30;11.70;99.90
11532;DHT22;5822;51.000;5.874;2023-02-18T11:58:56;11.60;99.90
11532;DHT22;5822;51.000;5.874;2023-02-18T12:01:46;11.70;99.90
11532;DHT22;5822;51.000;5.874;2023-02-18T12:04:20;11.60;99.90
11532;DHT22;5822;51.000;5.874;2023-02-18T12:09:26;11.60;99.90
11532;DHT22;5822;51.000;5.874;2023-02-18T12:11:56;11.70;99.90
11532;DHT22;5822;51.000;5.874;2023-02-18T12:14:23;11.70;99.90
11532;DHT22;5822;51.000;5.874;2023-02-18T12:20:03;11.70;99.90
11532;DHT22;5822;51.000;5.874;2023-02-18T12:25:43;11.70;99.90
11532;DHT22;5822;51.000;5.874;2023-02-18T12:53:41;11.90;99.90
11532;DHT22;5822;51.000;5.874;2023-02-18T12:56:25;11.80;99.90
11532;DHT22;5822;51.000;5.874;2023-02-18T12:59:13;11.80;99.90
11532;DHT22;5822;51.000;5.874;2023-02-18T13:04:46;11.80;99.90
11532;DHT22;5822;51.000;5.874;2023-02-18T13:13:16;11.90;99.90
11532;DHT22;5822;51.000;5.874;2023-02-18T13:15:49;11.90;99.90
11532;DHT22;5822;51.000;5.874;2023-02-18T13:18:30;12.00;99.90
11532;DHT22;5822;51.000;5.874;2023-02-18T13:21:00;12.00;99.90
11532;DHT22;5822;51.000;5.874;2023-02-18T13:23:35;12.00;99.90
11532;DHT22;5822;51.000;5.874;2023-02-18T13:26:04;12.00;99.90
11532;DHT22;5822;51.000;5.874;2023-02-18T13:31:51;12.10;99.90
11532;DHT22;5822;51.000;5.874;2023-02-18T13:34:36;12.10;99.90
11532;DHT22;5822;51.000;5.874;2023-02-18T13:39:37;12.00;99.90
11532;DHT22;5822;51.000;5.874;2023-02-18T13:47:43;12.00;99.90
11532;DHT22;5822;51.000;5.874;2023-02-18T13:55:51;12.10;99.90
11532;DHT22;5822;51.000;5.874;2023-02-18T13:58:47;12.10;99.90
11532;DHT22;5822;51.000;5.874;2023-02-18T14:01:24;12.00;99.90
11532;DHT22;5822;51.000;5.874;2023-02-18T14:03:56;12.10;99.90
11532;DHT22;5822;51.000;5.874;2023-02-18T14:06:26;12.10;99.90
11532;DHT22;5822;51.000;5.874;2023-02-18T14:11:40;12.10;99.90
11532;DHT22;5822;51.000;5.874;2023-02-18T14:19:42;12.00;99.90
11532;DHT22;5822;51.000;5.874;2023-02-18T14:25:12;12.00;99.90
11532;DHT22;5822;51.000;5.874;2023-02-18T14:27:41;12.10;99.90
11532;DHT22;5822;51.000;5.874;2023-02-18T14:32:40;12.00;99.90
11532;DHT22;5822;51.000;5.874;2023-02-18T14:51:33;12.10;99.90
11532;DHT22;5822;51.000;5.874;2023-02-18T14:54:04;12.10;99.90
11532;DHT22;5822;51.000;5.874;2023-02-18T14:56:31;12.10;99.90
11532;DHT22;5822;51.000;5.874;2023-02-18T14:59:02;12.10;99.90
11532;DHT22;5822;51.000;5.874;2023-02-18T15:01:31;12.10;99.90
11532;DHT22;5822;51.000;5.874;2023-02-18T15:03:57;12.00;99.90
11532;DHT22;5822;51.000;5.874;2023-02-18T15:08:54;12.00;99.90
11532;DHT22;5822;51.000;5.874;2023-02-18T15:11:22;12.00;99.90
11532;DHT22;5822;51.000;5.874;2023-02-18T15:13:49;12.00;99.90
11532;DHT22;5822;51.000;5.874;2023-02-18T15:16:25;12.10;99.90
11532;DHT22;5822;51.000;5.874;2023-02-18T15:19:03;12.10;99.90
11532;DHT22;5822;51.000;5.874;2023-02-18T15:24:06;12.10;99.90
11532;DHT22;5822;51.000;5.874;2023-02-18T15:26:34;12.10;99.90
11532;DHT22;5822;51.000;5.874;2023-02-18T15:29:03;12.10;99.90
11532;DHT22;5822;51.000;5.874;2023-02-18T15:31:34;12.20;99.90
11532;DHT22;5822;51.000;5.874;2023-02-18T15:34:00;12.20;99.90
11532;DHT22;5822;51.000;5.874;2023-02-18T15:36:26;12.20;99.90
11532;DHT22;5822;51.000;5.874;2023-02-18T15:38:52;12.20;99.90
11532;DHT22;5822;51.000;5.874;2023-02-18T15:41:19;12.20;99.90
11532;DHT22;5822;51.000;5.874;2023-02-18T15:44:02;12.20;99.90
11532;DHT22;5822;51.000;5.874;2023-02-18T15:46:29;12.20;99.90
11532;DHT22;5822;51.000;5.874;2023-02-18T15:48:56;12.20;99.90
11532;DHT22;5822;51.000;5.874;2023-02-18T15:51:29;12.20;99.90
11532;DHT22;5822;51.000;5.874;2023-02-18T15:53:58;12.20;99.90
11532;DHT22;5822;51.000;5.874;2023-02-18T15:56:35;12.20;99.90
11532;DHT22;5822;51.000;5.874;2023-02-18T15:59:34;12.20;99.90
11532;DHT22;5822;51.000;5.874;2023-02-18T16:02:20;12.20;99.90
11532;DHT22;5822;51.000;5.874;2023-02-18T16:04:54;12.20;99.90
11532;DHT22;5822;51.000;5.874;2023-02-18T16:07:24;12.20;99.90
11532;DHT22;5822;51.000;5.874;2023-02-18T16:09:56;12.20;99.90
11532;DHT22;5822;51.000;5.874;2023-02-18T16:12:31;12.30;99.90
11532;DHT22;5822;51.000;5.874;2023-02-18T16:14:57;12.20;99.90
11532;DHT22;5822;51.000;5.874;2023-02-18T16:17:27;12.20;99.90
11532;DHT22;5822;51.000;5.874;2023-02-18T16:19:59;12.20;99.90
11532;DHT22;5822;51.000;5.874;2023-02-18T16:25:13;12.20;99.90
11532;DHT22;5822;51.000;5.874;2023-02-18T16:27:53;12.10;99.90
11532;DHT22;5822;51.000;5.874;2023-02-18T16:32:45;12.20;99.90
11532;DHT22;5822;51.000;5.874;2023-02-18T16:35:12;12.20;99.90
11532;DHT22;5822;51.000;5.874;2023-02-18T16:37:38;12.20;99.90
11532;DHT22;5822;51.000;5.874;2023-02-18T16:42:57;12.20;99.90
11532;DHT22;5822;51.000;5.874;2023-02-18T16:45:44;12.10;99.90
11532;DHT22;5822;51.000;5.874;2023-02-18T16:50:52;12.10;99.90
11532;DHT22;5822;51.000;5.874;2023-02-18T16:53:18;12.10;99.90
11532;DHT22;5822;51.000;5.874;2023-02-18T16:55:44;12.10;99.90
11532;DHT22;5822;51.000;5.874;2023-02-18T16:58:10;12.10;99.90
11532;DHT22;5822;51.000;5.874;2023-02-18T17:00:36;12.20;99.90
11532;DHT22;5822;51.000;5.874;2023-02-18T17:03:04;12.10;99.90
11532;DHT22;5822;51.000;5.874;2023-02-18T17:05:31;12.10;99.90
11532;DHT22;5822;51.000;5.874;2023-02-18T17:08:20;12.10;99.90
11532;DHT22;5822;51.000;5.874;2023-02-18T17:10:49;12.10;99.90
11532;DHT22;5822;51.000;5.874;2023-02-18T17:13:17;12.10;99.90
11532;DHT22;5822;51.000;5.874;2023-02-18T17:15:44;12.10;99.90
11532;DHT22;5822;51.000;5.874;2023-02-18T17:18:10;12.10;99.90
11532;DHT22;5822;51.000;5.874;2023-02-18T17:20:36;12.10;99.90
11532;DHT22;5822;51.000;5.874;2023-02-18T17:23:02;12.20;99.90
11532;DHT22;5822;51.000;5.874;2023-02-18T17:25:30;12.20;99.90
11532;DHT22;5822;51.000;5.874;2023-02-18T17:27:57;12.10;99.90
11532;DHT22;5822;51.000;5.874;2023-02-18T17:30:23;12.10;99.90
11532;DHT22;5822;51.000;5.874;2023-02-18T17:32:48;12.10;99.90
11532;DHT22;5822;51.000;5.874;2023-02-18T17:35:20;12.10;99.90
11532;DHT22;5822;51.000;5.874;2023-02-18T17:37:47;12.10;99.90
11532;DHT22;5822;51.000;5.874;2023-02-18T17:40:18;12.10;99.90
11532;DHT22;5822;51.000;5.874;2023-02-18T17:42:45;12.10;99.90
11532;DHT22;5822;51.000;5.874;2023-02-18T17:45:25;12.10;99.90
11532;DHT22;5822;51.000;5.874;2023-02-18T17:47:51;12.00;99.90
11532;DHT22;5822;51.000;5.874;2023-02-18T17:50:17;12.10;99.90
11532;DHT22;5822;51.000;5.874;2023-02-18T17:52:42;12.10;99.90
11532;DHT22;5822;51.000;5.874;2023-02-18T17:55:20;12.10;99.90
11532;DHT22;5822;51.000;5.874;2023-02-18T17:57:46;12.10;99.90
11532;DHT22;5822;51.000;5.874;2023-02-18T18:00:16;12.10;99.90
11532;DHT22;5822;51.000;5.874;2023-02-18T18:02:42;12.10;99.90
11532;DHT22;5822;51.000;5.874;2023-02-18T18:05:21;12.10;99.90
11532;DHT22;5822;51.000;5.874;2023-02-18T18:07:48;12.10;99.90
11532;DHT22;5822;51.000;5.874;2023-02-18T18:10:15;12.10;99.90
11532;DHT22;5822;51.000;5.874;2023-02-18T18:12:41;12.10;99.90
11532;DHT22;5822;51.000;5.874;2023-02-18T18:17:54;12.20;99.90
11532;DHT22;5822;51.000;5.874;2023-02-18T18:20:21;12.20;99.90
11532;DHT22;5822;51.000;5.874;2023-02-18T18:22:53;12.20;99.90
11532;DHT22;5822;51.000;5.874;2023-02-18T18:25:24;12.20;99.90
11532;DHT22;5822;51.000;5.874;2023-02-18T18:27:51;12.10;99.90
11532;DHT22;5822;51.000;5.874;2023-02-18T18:30:22;12.10;99.90
11532;DHT22;5822;51.000;5.874;2023-02-18T18:32:48;12.10;99.90
11532;DHT22;5822;51.000;5.874;2023-02-18T18:35:23;12.10;99.90
11532;DHT22;5822;51.000;5.874;2023-02-18T18:37:49;12.20;99.90
11532;DHT22;5822;51.000;5.874;2023-02-18T18:40:16;12.20;99.90
11532;DHT22;5822;51.000;5.874;2023-02-18T18:42:42;12.10;99.90
11532;DHT22;5822;51.000;5.874;2023-02-18T18:45:29;12.20;99.90
11532;DHT22;5822;51.000;5.874;2023-02-18T18:47:56;12.10;99.90
11532;DHT22;5822;51.000;5.874;2023-02-18T18:50:27;12.20;99.90
11532;DHT22;5822;51.000;5.874;2023-02-18T18:52:53;12.10;99.90
11532;DHT22;5822;51.000;5.874;2023-02-18T18:57:46;12.10;99.90